sensor_id;sensor_type;location;lat;lon;timestamp;P1;durP1;ratioP1;P2;durP2;ratioP2
6791;SDS011;3433;48.730;9.108;2024-02-16T00:02:35;5.20;;;3.87;;
6791;SDS011;3433;48.730;9.108;2024-02-16T00:05:23;6.57;;;3.63;;
6791;SDS011;3433;48.730;9.108;2024-02-16T00:08:10;5.67;;;3.80;;
6791;SDS011;3433;48.730;9.108;2024-02-16T00:10:58;5.30;;;3.60;;
6791;SDS011;3433;48.730;9.108;2024-02-16T00:13:45;4.00;;;3.40;;
6791;SDS011;3433;48.730;9.108;2024-02-16T00:16:33;7.47;;;3.83;;
6791;SDS011;3433;48.730;9.108;2024-02-16T00:19:20;8.27;;;4.10;;
6791;SDS011;3433;48.730;9.108;2024-02-16T00:22:09;4.47;;;3.53;;
6791;SDS011;3433;48.730;9.108;2024-02-16T00:24:56;5.67;;;3.50;;
6791;SDS011;3433;48.730;9.108;2024-02-16T00:27:43;7.13;;;3.63;;
6791;SDS011;3433;48.730;9.108;2024-02-16T00:30:30;6.23;;;3.60;;
6791;SDS011;3433;48.730;9.108;2024-02-16T00:33:17;5.87;;;4.10;;
6791;SDS011;3433;48.730;9.108;2024-02-16T00:36:05;4.03;;;3.40;;
6791;SDS011;3433;48.730;9.108;2024-02-16T00:38:53;5.10;;;3.53;;
6791;SDS011;3433;48.730;9.108;2024-02-16T00:41:40;5.30;;;3.83;;
6791;SDS011;3433;48.730;9.108;2024-02-16T00:44:28;5.20;;;3.60;;
6791;SDS011;3433;48.730;9.108;2024-02-16T00:47:15;9.27;;;3.43;;
6791;SDS011;3433;48.730;9.108;2024-02-16T00:50:02;7.10;;;4.07;;
6791;SDS011;3433;48.730;9.108;2024-02-16T00:52:53;4.57;;;3.03;;
6791;SDS011;3433;48.730;9.108;2024-02-16T00:55:42;5.57;;;3.70;;
6791;SDS011;3433;48.730;9.108;2024-02-16T00:58:30;5.97;;;3.30;;
6791;SDS011;3433;48.730;9.108;2024-02-16T01:01:18;4.30;;;3.50;;
6791;SDS011;3433;48.730;9.108;2024-02-16T01:04:06;5.73;;;3.37;;
6791;SDS011;3433;48.730;9.108;2024-02-16T01:06:54;6.83;;;3.60;;
6791;SDS011;3433;48.730;9.108;2024-02-16T01:09:41;4.50;;;3.00;;
6791;SDS011;3433;48.730;9.108;2024-02-16T01:12:30;4.00;;;3.40;;
6791;SDS011;3433;48.730;9.108;2024-02-16T01:15:17;5.27;;;3.57;;
6791;SDS011;3433;48.730;9.108;2024-02-16T01:18:04;6.57;;;4.00;;
6791;SDS011;3433;48.730;9.108;2024-02-16T01:20:51;4.73;;;3.53;;
6791;SDS011;3433;48.730;9.108;2024-02-16T01:23:39;4.37;;;3.00;;
6791;SDS011;3433;48.730;9.108;2024-02-16T01:26:26;6.60;;;3.50;;
6791;SDS011;3433;48.730;9.108;2024-02-16T01:29:15;4.87;;;3.07;;
6791;SDS011;3433;48.730;9.108;2024-02-16T01:32:02;3.70;;;2.30;;
6791;SDS011;3433;48.730;9.108;2024-02-16T01:34:49;5.13;;;2.70;;
6791;SDS011;3433;48.730;9.108;2024-02-16T01:37:36;5.20;;;2.80;;
6791;SDS011;3433;48.730;9.108;2024-02-16T01:40:23;3.20;;;2.90;;
6791;SDS011;3433;48.730;9.108;2024-02-16T01:43:11;2.90;;;2.40;;
6791;SDS011;3433;48.730;9.108;2024-02-16T01:46:00;3.47;;;2.77;;
6791;SDS011;3433;48.730;9.108;2024-02-16T01:48:47;6.03;;;3.73;;
6791;SDS011;3433;48.730;9.108;2024-02-16T01:51:35;4.70;;;3.17;;
6791;SDS011;3433;48.730;9.108;2024-02-16T01:54:23;5.03;;;2.90;;
6791;SDS011;3433;48.730;9.108;2024-02-16T01:57:11;5.03;;;2.87;;
6791;SDS011;3433;48.730;9.108;2024-02-16T01:59:59;5.30;;;3.20;;
6791;SDS011;3433;48.730;9.108;2024-02-16T02:02:48;3.00;;;2.50;;
6791;SDS011;3433;48.730;9.108;2024-02-16T02:05:43;6.77;;;2.93;;
6791;SDS011;3433;48.730;9.108;2024-02-16T02:08:31;4.53;;;2.90;;
6791;SDS011;3433;48.730;9.108;2024-02-16T02:11:18;3.23;;;2.47;;
6791;SDS011;3433;48.730;9.108;2024-02-16T02:14:05;3.10;;;2.37;;
6791;SDS011;3433;48.730;9.108;2024-02-16T02:16:52;4.57;;;2.70;;
6791;SDS011;3433;48.730;9.108;2024-02-16T02:19:41;2.30;;;2.10;;
6791;SDS011;3433;48.730;9.108;2024-02-16T02:22:29;4.07;;;2.50;;
6791;SDS011;3433;48.730;9.108;2024-02-16T02:25:17;3.20;;;2.20;;
6791;SDS011;3433;48.730;9.108;2024-02-16T02:28:04;2.70;;;2.00;;
6791;SDS011;3433;48.730;9.108;2024-02-16T02:30:51;3.00;;;2.17;;
6791;SDS011;3433;48.730;9.108;2024-02-16T02:33:38;2.37;;;2.03;;
6791;SDS011;3433;48.730;9.108;2024-02-16T02:36:26;7.63;;;2.00;;
6791;SDS011;3433;48.730;9.108;2024-02-16T02:39:14;4.37;;;2.70;;
6791;SDS011;3433;48.730;9.108;2024-02-16T02:42:01;11.83;;;2.17;;
6791;SDS011;3433;48.730;9.108;2024-02-16T02:44:49;4.23;;;2.23;;
6791;SDS011;3433;48.730;9.108;2024-02-16T02:47:36;2.67;;;2.27;;
6791;SDS011;3433;48.730;9.108;2024-02-16T02:50:23;2.73;;;2.20;;
6791;SDS011;3433;48.730;9.108;2024-02-16T02:53:10;2.20;;;2.00;;
6791;SDS011;3433;48.730;9.108;2024-02-16T02:55:59;4.07;;;2.17;;
6791;SDS011;3433;48.730;9.108;2024-02-16T02:58:46;2.40;;;2.10;;
